Time;durP1;ratioP1;P1;durP2;ratioP2;P2;SDS_P1;SDS_P2;PMS_P1;PMS_P2;Temp;Humidity;BMP_temperature;BMP_pressure;BME280_temperature;BME280_humidity;BME280_pressure;Samples;Min_cycle;Max_cycle;Signal;HPM_P1;HPM_P2
2022/09/17 00:00:26;;;;;;;5.45;1.17;;;;;18.10;101143.00;;;;5008382;28;20259;-79
2022/09/17 00:02:54;;;;;;;5.45;0.68;;;;;18.10;101144.00;;;;5004009;28;20204;-80
2022/09/17 00:05:23;;;;;;;2.78;0.43;;;;;18.10;101147.00;;;;5009979;28;20256;-79
2022/09/17 00:07:50;;;;;;;4.13;1.13;;;;;18.10;101152.00;;;;5009087;28;20201;-78
2022/09/17 00:10:19;;;;;;;3.78;0.60;;;;;18.10;101150.00;;;;5001078;28;20204;-78
2022/09/17 00:12:47;;;;;;;3.65;0.80;;;;;18.10;101150.00;;;;5017681;28;20193;-79
2022/09/17 00:15:14;;;;;;;4.03;0.80;;;;;18.10;101150.00;;;;5010668;28;20201;-79
2022/09/17 00:17:43;;;;;;;5.43;0.70;;;;;18.10;101152.00;;;;5007016;28;20197;-79
2022/09/17 00:20:11;;;;;;;2.67;0.95;;;;;18.10;101148.00;;;;5006834;28;20201;-79
2022/09/17 00:22:39;;;;;;;4.97;0.90;;;;;18.00;101151.00;;;;5008770;28;20205;-79
2022/09/17 00:25:11;;;;;;;5.78;1.08;;;;;18.00;101164.00;;;;5006678;28;20205;-79
2022/09/17 00:27:38;;;;;;;6.30;0.90;;;;;18.00;101156.00;;;;5010678;28;20196;-79
2022/09/17 00:30:07;;;;;;;3.28;0.60;;;;;18.00;101164.00;;;;5012749;28;20204;-78
2022/09/17 00:32:34;;;;;;;3.33;0.77;;;;;18.00;101160.00;;;;5009112;28;20219;-79
2022/09/17 00:35:03;;;;;;;4.70;0.80;;;;;17.90;101157.00;;;;5007730;28;20216;-79
2022/09/17 00:37:30;;;;;;;4.13;0.70;;;;;17.90;101168.00;;;;5006432;28;20201;-78
2022/09/17 00:39:57;;;;;;;2.40;0.70;;;;;17.90;101171.00;;;;5006980;28;20204;-79
2022/09/17 00:42:25;;;;;;;3.00;0.40;;;;;17.90;101179.00;;;;5003625;28;20212;-79
2022/09/17 00:44:54;;;;;;;5.75;0.90;;;;;17.90;101170.00;;;;5004478;28;20204;-78
2022/09/17 00:47:26;;;;;;;4.05;0.70;;;;;17.80;101174.00;;;;5007704;28;20221;-78
2022/09/17 00:50:01;;;;;;;5.15;0.80;;;;;17.80;101171.00;;;;5007741;28;20193;-79
2022/09/17 00:52:33;;;;;;;6.95;0.95;;;;;17.80;101172.00;;;;5007427;28;20189;-78
2022/09/17 00:55:07;;;;;;;5.95;0.68;;;;;17.80;101177.00;;;;5006857;28;20205;-78
2022/09/17 00:57:35;;;;;;;3.13;0.52;;;;;17.80;101176.00;;;;5006714;28;20268;-78
2022/09/17 01:00:04;;;;;;;3.90;0.63;;;;;17.80;101170.00;;;;5006902;28;20201;-78
2022/09/17 01:02:31;;;;;;;3.10;0.50;;;;;17.80;101171.00;;;;5011993;28;20208;-78
2022/09/17 01:04:59;;;;;;;3.13;0.63;;;;;17.80;101171.00;;;;5009723;28;20670;-79
2022/09/17 01:07:46;;;;;;;3.30;0.55;;;;;17.60;101174.00;;;;5011481;28;20240;-78
2022/09/17 01:10:31;;;;;;;3.17;0.47;;;;;17.70;101172.00;;;;5011173;28;20197;-78
2022/09/17 01:13:12;;;;;;;2.75;0.73;;;;;17.70;101178.00;;;;5009671;28;20204;-78
2022/09/17 01:15:47;;;;;;;2.10;0.47;;;;;17.70;101173.00;;;;5011402;28;20216;-78
2022/09/17 01:18:30;;;;;;;2.05;0.47;;;;;17.60;101174.00;;;;5007201;28;20216;-78
2022/09/17 01:21:39;;;;;;;2.30;0.60;;;;;17.50;101174.00;;;;5009434;28;20197;-78
2022/09/17 01:24:57;;;;;;;5.35;0.93;;;;;17.50;101175.00;;;;5010628;28;20941;-78
2022/09/17 01:27:54;;;;;;;2.92;0.93;;;;;17.50;101175.00;;;;5010463;28;20789;-78
2022/09/17 01:30:59;;;;;;;1.77;0.55;;;;;17.40;101186.00;;;;5010900;28;20204;-78
2022/09/17 01:33:33;;;;;;;2.38;0.60;;;;;17.50;101190.00;;;;5006361;28;20201;-78
2022/09/17 01:36:17;;;;;;;5.75;0.82;;;;;17.40;101192.00;;;;5010148;28;20200;-78
2022/09/17 01:38:52;;;;;;;3.22;0.60;;;;;17.40;101202.00;;;;5010443;28;20197;-78
2022/09/17 01:41:31;;;;;;;2.75;0.32;;;;;17.40;101196.00;;;;5010737;28;20203;-78
2022/09/17 01:44:02;;;;;;;3.40;0.50;;;;;17.40;101198.00;;;;5008926;28;20572;-78
2022/09/17 01:46:34;;;;;;;3.17;1.10;;;;;17.40;101202.00;;;;5021096;28;20705;-78
2022/09/17 01:49:04;;;;;;;2.30;0.60;;;;;17.40;101203.00;;;;5023470;28;20193;-78
2022/09/17 01:51:38;;;;;;;5.10;0.93;;;;;17.30;101198.00;;;;5008208;28;20207;-78
2022/09/17 01:54:12;;;;;;;3.65;0.47;;;;;17.40;101209.00;;;;5013867;28;20219;-79
2022/09/17 01:56:47;;;;;;;4.30;0.80;;;;;17.30;101214.00;;;;5010630;28;20204;-79
2022/09/17 01:59:20;;;;;;;3.58;0.80;;;;;17.30;101204.00;;;;5009558;28;20224;-79
2022/09/17 02:01:52;;;;;;;3.83;0.43;;;;;17.30;101201.00;;;;5010759;28;20204;-79
2022/09/17 02:04:24;;;;;;;6.20;0.60;;;;;17.40;101206.00;;;;5009833;28;20921;-78
2022/09/17 02:06:59;;;;;;;6.07;0.98;;;;;17.40;101203.00;;;;5011845;28;20225;-79
2022/09/17 02:09:32;;;;;;;3.55;0.40;;;;;17.40;101215.00;;;;5008290;28;20211;-78
2022/09/17 02:12:05;;;;;;;6.45;0.98;;;;;17.40;101205.00;;;;5009836;28;20203;-79
2022/09/17 02:14:39;;;;;;;2.15;0.50;;;;;17.40;101209.00;;;;5009973;28;20204;-78
2022/09/17 02:17:15;;;;;;;2.67;0.55;;;;;17.40;101208.00;;;;5008902;28;20223;-79
2022/09/17 02:19:42;;;;;;;4.28;0.77;;;;;17.50;101203.00;;;;5009491;28;20200;-78
2022/09/17 02:22:22;;;;;;;4.32;0.50;;;;;17.50;101213.00;;;;5009434;28;20192;-79
2022/09/17 02:24:59;;;;;;;2.85;0.50;;;;;17.50;101211.00;;;;5016547;28;20197;-78
2022/09/17 02:27:37;;;;;;;4.05;0.77;;;;;17.50;101210.00;;;;4990179;28;20225;-78
2022/09/17 02:30:05;;;;;;;3.95;0.40;;;;;17.50;101206.00;;;;5024867;28;20204;-78
2022/09/17 02:32:34;;;;;;;1.83;0.40;;;;;17.50;101198.00;;;;5008977;28;20206;-78
2022/09/17 02:35:01;;;;;;;3.75;0.50;;;;;17.60;101200.00;;;;5008879;28;20212;-78
2022/09/17 02:37:29;;;;;;;3.78;0.50;;;;;17.60;101211.00;;;;5009720;28;20201;-79
2022/09/17 02:39:56;;;;;;;5.40;0.75;;;;;17.60;101214.00;;;;5009232;28;20193;-79
2022/09/17 02:42:32;;;;;;;3.28;0.77;;;;;17.50;101215.00;;;;5002457;28;20209;-78
2022/09/17 02:45:06;;;;;;;1.13;0.57;;;;;17.50;101215.00;;;;4993628;28;20199;-78
2022/09/17 02:47:57;;;;;;;3.17;0.70;;;;;17.40;101209.00;;;;5006504;28;20224;-79
2022/09/17 02:50:34;;;;;;;4.03;0.50;;;;;17.40;101217.00;;;;5009591;28;20193;-78
2022/09/17 02:53:13;;;;;;;1.98;0.73;;;;;17.50;101215.00;;;;5007207;28;20205;-79
2022/09/17 02:55:45;;;;;;;2.78;0.40;;;;;17.50;101220.00;;;;5018264;28;20223;-79
2022/09/17 02:58:22;;;;;;;4.80;0.52;;;;;17.40;101233.00;;;;5009504;28;20609;-79
2022/09/17 03:00:50;;;;;;;2.97;0.50;;;;;17.50;101223.00;;;;5008519;28;20204;-79
2022/09/17 03:03:25;;;;;;;3.35;0.52;;;;;17.40;101224.00;;;;5012329;28;20196;-79
2022/09/17 03:05:53;;;;;;;2.72;0.57;;;;;17.40;101219.00;;;;4992126;28;20192;-78
2022/09/17 03:08:28;;;;;;;4.30;0.55;;;;;17.50;101215.00;;;;5011032;28;20713;-78
2022/09/17 03:10:55;;;;;;;4.07;0.70;;;;;17.40;101212.00;;;;5007916;28;20204;-79
2022/09/17 03:13:22;;;;;;;3.50;0.40;;;;;17.40;101215.00;;;;5008788;28;20196;-79
2022/09/17 03:15:50;;;;;;;4.97;0.95;;;;;17.40;101215.00;;;;5002193;28;20206;-79
2022/09/17 03:18:19;;;;;;;2.30;0.50;;;;;17.40;101225.00;;;;5007820;28;20573;-79
2022/09/17 03:20:46;;;;;;;1.63;0.52;;;;;17.40;101216.00;;;;5008369;28;20197;-79
2022/09/17 03:23:13;;;;;;;3.40;0.40;;;;;17.40;101218.00;;;;5007232;28;20205;-79
2022/09/17 03:25:41;;;;;;;1.83;0.45;;;;;17.40;101204.00;;;;5008558;28;20204;-79
2022/09/17 03:28:08;;;;;;;5.05;0.47;;;;;17.40;101197.00;;;;5008046;28;20217;-79
2022/09/17 03:30:35;;;;;;;4.65;0.65;;;;;17.30;101201.00;;;;5008094;28;20204;-79
2022/09/17 03:33:02;;;;;;;2.63;0.47;;;;;17.30;101199.00;;;;5007780;28;20656;-79
2022/09/17 03:35:31;;;;;;;3.42;0.47;;;;;17.30;101198.00;;;;5008031;28;20205;-79
2022/09/17 03:37:58;;;;;;;6.07;0.40;;;;;17.30;101204.00;;;;5007855;28;20204;-79
2022/09/17 03:40:26;;;;;;;3.88;0.80;;;;;17.30;101209.00;;;;5008162;28;20640;-79
2022/09/17 03:42:53;;;;;;;6.03;0.50;;;;;17.30;101206.00;;;;5009556;28;20577;-79
2022/09/17 03:45:20;;;;;;;3.83;0.60;;;;;17.20;101206.00;;;;5005340;28;20197;-79
2022/09/17 03:47:48;;;;;;;4.10;0.60;;;;;17.20;101211.00;;;;5008977;28;20236;-79
2022/09/17 03:50:15;;;;;;;3.53;0.75;;;;;17.20;101206.00;;;;5004769;28;20201;-79
2022/09/17 03:52:45;;;;;;;5.20;0.90;;;;;17.20;101208.00;;;;5007609;28;20189;-79
2022/09/17 03:55:12;;;;;;;3.53;0.47;;;;;17.20;101211.00;;;;5008577;28;20205;-79
2022/09/17 03:57:39;;;;;;;2.25;0.40;;;;;17.20;101213.00;;;;5007964;28;21109;-79
2022/09/17 04:00:08;;;;;;;3.92;0.75;;;;;17.10;101223.00;;;;5007981;28;20196;-79
2022/09/17 04:02:35;;;;;;;3.08;0.77;;;;;17.10;101224.00;;;;5010036;28;20205;-79
2022/09/17 04:05:02;;;;;;;4.25;0.50;;;;;17.10;101227.00;;;;5013891;28;20201;-78
2022/09/17 04:07:29;;;;;;;4.38;0.73;;;;;17.00;101236.00;;;;5001306;28;20227;-79
2022/09/17 04:09:58;;;;;;;2.35;0.45;;;;;17.00;101234.00;;;;5019147;28;20216;-79
2022/09/17 04:12:25;;;;;;;2.65;0.50;;;;;17.00;101235.00;;;;5008647;28;20207;-79
2022/09/17 04:14:53;;;;;;;2.47;0.68;;;;;16.90;101236.00;;;;5022569;28;21122;-79
2022/09/17 04:17:20;;;;;;;3.30;0.73;;;;;16.90;101236.00;;;;5008491;28;20205;-79
2022/09/17 04:19:47;;;;;;;6.07;0.68;;;;;16.90;101228.00;;;;5023799;28;20189;-79
2022/09/17 04:22:14;;;;;;;2.90;0.45;;;;;16.90;101222.00;;;;5007927;28;20247;-79
2022/09/17 04:24:42;;;;;;;4.03;1.05;;;;;16.90;101222.00;;;;5008874;28;20212;-79
2022/09/17 04:27:10;;;;;;;1.38;0.40;;;;;16.80;101222.00;;;;5007346;28;20272;-79
2022/09/17 04:29:37;;;;;;;0.93;0.20;;;;;16.80;101226.00;;;;5007231;28;20197;-79
2022/09/17 04:32:05;;;;;;;2.75;0.68;;;;;16.80;101223.00;;;;5008510;28;20205;-79
2022/09/17 04:34:33;;;;;;;3.42;0.38;;;;;16.80;101227.00;;;;5003847;28;20201;-79
2022/09/17 04:37:00;;;;;;;2.90;0.47;;;;;16.80;101229.00;;;;5009859;28;20251;-79
2022/09/17 04:39:27;;;;;;;1.02;0.40;;;;;16.80;101231.00;;;;5011586;28;20201;-79
2022/09/17 04:41:55;;;;;;;5.35;0.50;;;;;16.80;101231.00;;;;5010331;28;20200;-79
2022/09/17 04:44:24;;;;;;;2.05;0.47;;;;;16.80;101231.00;;;;5016260;28;20296;-79
2022/09/17 04:46:51;;;;;;;3.42;0.60;;;;;16.80;101233.00;;;;5005473;28;20228;-79
2022/09/17 04:49:18;;;;;;;2.47;1.10;;;;;16.80;101235.00;;;;5012401;28;20208;-79
2022/09/17 04:51:46;;;;;;;2.95;0.93;;;;;16.70;101228.00;;;;5011601;28;20204;-79
2022/09/17 04:54:13;;;;;;;4.03;0.77;;;;;16.70;101233.00;;;;5009806;28;20198;-79
2022/09/17 04:56:40;;;;;;;3.28;0.43;;;;;16.70;101230.00;;;;5011204;28;20193;-79
2022/09/17 04:59:08;;;;;;;5.20;0.70;;;;;16.70;101236.00;;;;5006462;28;20240;-79
2022/09/17 05:01:36;;;;;;;3.00;0.60;;;;;16.70;101234.00;;;;5009376;28;20585;-79
2022/09/17 05:04:04;;;;;;;3.55;0.52;;;;;16.60;101237.00;;;;5011024;28;20585;-80
2022/09/17 05:06:31;;;;;;;1.88;0.47;;;;;16.70;101232.00;;;;5009610;28;20196;-79
2022/09/17 05:08:59;;;;;;;1.83;0.30;;;;;16.70;101238.00;;;;5008943;28;20197;-79
2022/09/17 05:11:26;;;;;;;3.47;0.75;;;;;16.60;101236.00;;;;5010409;28;20208;-79
2022/09/17 05:13:53;;;;;;;4.32;0.55;;;;;16.60;101244.00;;;;5011747;28;20197;-77
2022/09/17 05:16:21;;;;;;;6.47;0.50;;;;;16.60;101235.00;;;;4997140;28;21012;-78
2022/09/17 05:18:50;;;;;;;2.65;0.40;;;;;16.60;101251.00;;;;5004719;28;20193;-78
2022/09/17 05:21:17;;;;;;;1.90;0.43;;;;;16.60;101239.00;;;;5007684;28;20205;-77
2022/09/17 05:23:45;;;;;;;2.10;0.43;;;;;16.60;101246.00;;;;5007292;28;20201;-78
2022/09/17 05:26:12;;;;;;;2.63;0.77;;;;;16.60;101255.00;;;;5009678;28;20201;-77
2022/09/17 05:28:39;;;;;;;1.30;0.30;;;;;16.60;101261.00;;;;5006110;28;20224;-79
2022/09/17 05:31:07;;;;;;;2.13;0.32;;;;;16.60;101263.00;;;;5005389;28;20201;-79
2022/09/17 05:33:34;;;;;;;1.50;0.40;;;;;16.60;101266.00;;;;5003305;28;20209;-80
2022/09/17 05:36:03;;;;;;;1.17;0.50;;;;;16.60;101272.00;;;;5005807;28;20208;-79
2022/09/17 05:38:31;;;;;;;1.15;0.28;;;;;16.60;101266.00;;;;5005900;28;20732;-77
2022/09/17 05:40:58;;;;;;;2.83;0.35;;;;;16.60;101265.00;;;;5003295;28;20200;-78
2022/09/17 05:43:25;;;;;;;3.45;0.40;;;;;16.60;101265.00;;;;5003996;28;20197;-77
2022/09/17 05:45:53;;;;;;;1.27;0.20;;;;;16.60;101268.00;;;;5001872;28;20205;-76
2022/09/17 05:48:21;;;;;;;1.15;0.35;;;;;16.70;101267.00;;;;5001827;28;21246;-77
2022/09/17 05:50:48;;;;;;;2.00;0.43;;;;;16.70;101271.00;;;;5001538;28;20204;-77
2022/09/17 05:53:17;;;;;;;2.88;0.45;;;;;16.70;101275.00;;;;5003134;28;20201;-77
2022/09/17 05:55:45;;;;;;;3.00;0.73;;;;;16.70;101261.00;;;;4998288;28;20293;-76
2022/09/17 05:58:13;;;;;;;2.03;0.70;;;;;16.70;101261.00;;;;5006766;28;20256;-77
2022/09/17 06:00:41;;;;;;;2.80;0.30;;;;;16.80;101269.00;;;;5009937;28;20201;-77
2022/09/17 06:03:10;;;;;;;4.93;0.50;;;;;16.80;101277.00;;;;5010244;28;20255;-77
2022/09/17 06:05:37;;;;;;;1.80;0.52;;;;;16.90;101268.00;;;;5005873;28;20252;-78
2022/09/17 06:08:05;;;;;;;2.55;0.30;;;;;16.90;101282.00;;;;5004774;28;20229;-78
2022/09/17 06:10:37;;;;;;;1.52;0.43;;;;;16.90;101277.00;;;;5004566;28;20184;-79
2022/09/17 06:13:04;;;;;;;4.78;0.43;;;;;17.00;101282.00;;;;5004581;28;20299;-79
2022/09/17 06:15:32;;;;;;;1.17;0.30;;;;;17.00;101278.00;;;;5004110;28;20308;-78
2022/09/17 06:17:59;;;;;;;3.35;0.50;;;;;17.10;101275.00;;;;5002319;28;20209;-80
2022/09/17 06:20:26;;;;;;;1.58;0.50;;;;;17.10;101276.00;;;;5013131;28;20197;-80
2022/09/17 06:22:57;;;;;;;2.08;0.25;;;;;17.20;101285.00;;;;5008769;28;20201;-80
2022/09/17 06:25:25;;;;;;;1.05;0.20;;;;;17.30;101283.00;;;;5009342;28;20250;-80
2022/09/17 06:27:53;;;;;;;2.47;0.40;;;;;17.30;101286.00;;;;5009068;28;20254;-79
2022/09/17 06:30:21;;;;;;;2.72;0.52;;;;;17.40;101287.00;;;;5006171;28;20663;-81
2022/09/17 06:32:48;;;;;;;2.92;0.70;;;;;17.50;101293.00;;;;5007841;28;20215;-77
2022/09/17 06:35:17;;;;;;;2.55;0.50;;;;;17.50;101295.00;;;;5010046;28;20188;-78
2022/09/17 06:37:44;;;;;;;3.30;0.45;;;;;17.60;101290.00;;;;5007532;28;20209;-78
2022/09/17 06:40:11;;;;;;;0.98;0.40;;;;;17.70;101296.00;;;;5004916;28;20204;-79
2022/09/17 06:42:39;;;;;;;1.45;0.50;;;;;17.70;101299.00;;;;5008074;28;20201;-79
2022/09/17 06:45:08;;;;;;;3.55;0.43;;;;;17.80;101292.00;;;;5008714;28;20216;-79
2022/09/17 06:47:36;;;;;;;2.03;0.40;;;;;17.80;101292.00;;;;5008863;28;20867;-77
2022/09/17 06:50:03;;;;;;;2.00;0.50;;;;;17.90;101289.00;;;;5005914;28;20211;-77
2022/09/17 06:52:30;;;;;;;4.20;0.45;;;;;18.00;101294.00;;;;5002204;28;20240;-77
2022/09/17 06:54:58;;;;;;;1.95;0.55;;;;;18.00;101295.00;;;;5004550;28;20205;-77
2022/09/17 06:57:25;;;;;;;3.33;0.28;;;;;18.10;101299.00;;;;5005821;28;20233;-77
2022/09/17 06:59:52;;;;;;;1.80;0.30;;;;;18.10;101304.00;;;;5007248;28;20201;-77
2022/09/17 07:02:21;;;;;;;5.55;0.60;;;;;18.10;101308.00;;;;5006117;28;20866;-78
2022/09/17 07:04:48;;;;;;;1.75;0.47;;;;;18.20;101310.00;;;;5008334;28;20201;-77
2022/09/17 07:07:15;;;;;;;4.07;0.60;;;;;18.20;101304.00;;;;5008630;28;20193;-78
2022/09/17 07:09:43;;;;;;;1.48;0.30;;;;;18.30;101308.00;;;;5011442;28;20208;-77
2022/09/17 07:12:10;;;;;;;4.85;0.40;;;;;18.40;101309.00;;;;5003984;28;21111;-77
2022/09/17 07:14:37;;;;;;;1.77;0.40;;;;;18.50;101320.00;;;;5004940;28;20202;-78
2022/09/17 07:17:05;;;;;;;1.15;0.20;;;;;18.50;101315.00;;;;5008608;28;20197;-77
2022/09/17 07:19:34;;;;;;;1.08;0.20;;;;;18.60;101307.00;;;;5007049;28;20255;-78
2022/09/17 07:22:01;;;;;;;3.33;0.45;;;;;18.60;101309.00;;;;5008588;28;20208;-78
2022/09/17 07:24:28;;;;;;;2.20;0.40;;;;;18.60;101307.00;;;;5008377;28;20201;-77
2022/09/17 07:26:56;;;;;;;2.08;0.50;;;;;18.60;101313.00;;;;5005763;28;20205;-78
2022/09/17 07:29:25;;;;;;;2.92;0.47;;;;;18.70;101311.00;;;;5013114;28;20220;-78
2022/09/17 07:31:53;;;;;;;3.15;0.32;;;;;18.70;101307.00;;;;5006857;28;20457;-78
2022/09/17 07:34:21;;;;;;;4.40;1.13;;;;;18.80;101311.00;;;;5009280;28;20201;-79
2022/09/17 07:36:49;;;;;;;3.35;0.50;;;;;18.80;101308.00;;;;5006916;28;20205;-76
2022/09/17 07:39:17;;;;;;;2.90;0.40;;;;;18.90;101310.00;;;;5016631;28;20205;-76
2022/09/17 07:41:44;;;;;;;4.10;0.40;;;;;19.00;101314.00;;;;5008755;28;20193;-77
2022/09/17 07:44:11;;;;;;;1.35;0.30;;;;;19.00;101308.00;;;;5024214;28;20573;-76
2022/09/17 07:46:39;;;;;;;1.92;0.30;;;;;19.10;101314.00;;;;5010131;28;20201;-76
2022/09/17 07:49:06;;;;;;;3.08;0.45;;;;;19.10;101310.00;;;;5007440;28;20645;-77
2022/09/17 07:51:33;;;;;;;1.70;0.30;;;;;19.20;101302.00;;;;5006601;28;20193;-76
2022/09/17 07:54:02;;;;;;;3.78;0.25;;;;;19.20;101309.00;;;;5004896;28;20196;-76
2022/09/17 07:56:29;;;;;;;3.63;0.40;;;;;19.20;101312.00;;;;5007053;28;20200;-77
2022/09/17 07:58:57;;;;;;;1.85;0.40;;;;;19.30;101316.00;;;;5008485;28;20237;-77
2022/09/17 08:01:26;;;;;;;2.42;0.60;;;;;19.40;101315.00;;;;5003584;28;20247;-78
2022/09/17 08:03:54;;;;;;;1.23;0.57;;;;;19.40;101313.00;;;;5011933;28;21847;-77
2022/09/17 08:06:24;;;;;;;3.22;0.35;;;;;19.50;101308.00;;;;5004535;28;20208;-77
2022/09/17 08:08:52;;;;;;;3.50;0.20;;;;;19.50;101311.00;;;;5006065;28;20320;-77
2022/09/17 08:11:23;;;;;;;3.20;0.32;;;;;19.60;101308.00;;;;5015486;28;20215;-77
2022/09/17 08:13:53;;;;;;;2.20;0.40;;;;;19.70;101311.00;;;;5008231;28;20205;-77
2022/09/17 08:16:22;;;;;;;3.30;0.65;;;;;19.80;101308.00;;;;5010623;28;20201;-77
2022/09/17 08:18:54;;;;;;;3.35;0.47;;;;;19.90;101314.00;;;;5019450;28;20201;-78
2022/09/17 08:21:21;;;;;;;1.65;0.40;;;;;20.00;101311.00;;;;5011666;28;20567;-76
2022/09/17 08:23:49;;;;;;;1.75;0.38;;;;;20.10;101310.00;;;;5010868;28;20954;-77
2022/09/17 08:26:19;;;;;;;1.55;0.28;;;;;20.20;101304.00;;;;5009574;28;20197;-76
2022/09/17 08:28:49;;;;;;;5.30;0.75;;;;;20.30;101310.00;;;;5018001;28;20220;-76
2022/09/17 08:31:18;;;;;;;3.15;0.40;;;;;20.40;101306.00;;;;5010390;28;20251;-75
2022/09/17 08:33:46;;;;;;;1.83;0.50;;;;;20.50;101316.00;;;;5008754;28;20201;-75
2022/09/17 08:36:15;;;;;;;1.50;0.30;;;;;20.50;101317.00;;;;5010553;28;20189;-75
2022/09/17 08:38:42;;;;;;;3.97;0.63;;;;;20.60;101318.00;;;;5009449;28;20193;-75
2022/09/17 08:41:21;;;;;;;1.30;0.40;;;;;20.60;101317.00;;;;5008681;28;20197;-75
2022/09/17 08:43:56;;;;;;;2.05;0.38;;;;;20.70;101316.00;;;;5006597;28;20267;-75
2022/09/17 08:46:24;;;;;;;3.92;0.40;;;;;20.80;101315.00;;;;5024022;28;20197;-75
2022/09/17 08:49:01;;;;;;;4.25;0.50;;;;;20.90;101325.00;;;;5010958;28;20217;-75
2022/09/17 08:51:38;;;;;;;1.75;0.30;;;;;20.90;101330.00;;;;5009033;28;20896;-76
2022/09/17 08:54:12;;;;;;;1.98;0.20;;;;;20.90;101337.00;;;;5017470;28;20246;-75
2022/09/17 08:56:43;;;;;;;2.50;0.30;;;;;20.90;101344.00;;;;5011325;28;20193;-76
2022/09/17 08:59:21;;;;;;;2.13;0.40;;;;;20.80;101335.00;;;;5012136;28;20251;-75
2022/09/17 09:01:58;;;;;;;2.55;0.65;;;;;20.80;101341.00;;;;5002090;28;20197;-76
2022/09/17 09:04:54;;;;;;;3.03;0.65;;;;;20.80;101337.00;;;;5003983;28;20603;-77
2022/09/17 09:07:26;;;;;;;1.50;0.50;;;;;20.90;101349.00;;;;5000322;28;20201;-76
2022/09/17 09:10:04;;;;;;;2.20;0.30;;;;;20.90;101343.00;;;;5010754;28;20314;-75
2022/09/17 09:12:35;;;;;;;2.97;0.30;;;;;21.00;101340.00;;;;5009994;28;20207;-75
2022/09/17 09:15:13;;;;;;;1.00;0.20;;;;;21.00;101343.00;;;;5010841;28;20285;-76
2022/09/17 09:17:45;;;;;;;1.23;0.20;;;;;21.10;101358.00;;;;5008662;28;20205;-75
2022/09/17 09:20:19;;;;;;;1.23;0.20;;;;;21.10;101349.00;;;;5005848;28;20198;-76
2022/09/17 09:22:49;;;;;;;1.35;0.30;;;;;21.20;101363.00;;;;5005389;28;20193;-77
2022/09/17 09:25:22;;;;;;;1.23;0.47;;;;;21.10;101344.00;;;;5005325;28;20650;-76
2022/09/17 09:28:10;;;;;;;2.25;0.28;;;;;21.10;101350.00;;;;5010153;28;20205;-76
2022/09/17 09:30:51;;;;;;;3.45;0.40;;;;;21.10;101358.00;;;;5002976;28;20197;-75
2022/09/17 09:33:24;;;;;;;1.45;0.30;;;;;21.10;101349.00;;;;5011245;28;20196;-77
2022/09/17 09:35:52;;;;;;;0.65;0.17;;;;;21.10;101357.00;;;;5009226;28;20201;-78
2022/09/17 09:38:31;;;;;;;0.77;0.30;;;;;21.00;101350.00;;;;5008437;28;20205;-77
2022/09/17 09:41:06;;;;;;;0.93;0.45;;;;;21.20;101357.00;;;;5010326;28;20225;-77
2022/09/17 09:43:40;;;;;;;2.05;0.43;;;;;21.30;101350.00;;;;5007324;28;20201;-76
2022/09/17 09:46:31;;;;;;;3.80;0.38;;;;;21.30;101361.00;;;;5006061;28;20280;-78
2022/09/17 09:49:10;;;;;;;1.75;0.40;;;;;21.50;101351.00;;;;5000933;28;20212;-77
2022/09/17 09:51:48;;;;;;;3.17;0.68;;;;;21.60;101350.00;;;;5004453;28;20223;-79
2022/09/17 09:54:31;;;;;;;1.55;0.40;;;;;21.70;101341.00;;;;5008085;28;20837;-78
2022/09/17 09:57:02;;;;;;;2.60;0.68;;;;;21.80;101336.00;;;;5006889;28;20201;-78
2022/09/17 09:59:30;;;;;;;5.88;0.50;;;;;22.00;101343.00;;;;5002739;28;20218;-78
2022/09/17 10:01:59;;;;;;;4.50;0.60;;;;;22.00;101347.00;;;;5007225;28;20208;-77
2022/09/17 10:04:27;;;;;;;1.55;0.25;;;;;22.10;101357.00;;;;5010448;28;20193;-78
2022/09/17 10:07:02;;;;;;;2.40;0.38;;;;;22.20;101362.00;;;;5008916;28;20224;-78
2022/09/17 10:09:31;;;;;;;2.30;0.45;;;;;22.20;101359.00;;;;5008109;28;20620;-78
2022/09/17 10:12:06;;;;;;;0.47;0.20;;;;;22.10;101361.00;;;;5006644;28;20204;-77
2022/09/17 10:14:35;;;;;;;2.80;0.50;;;;;22.10;101357.00;;;;5010296;28;20200;-78
2022/09/17 10:17:18;;;;;;;2.17;0.32;;;;;22.00;101361.00;;;;5008226;28;20668;-77
2022/09/17 10:19:47;;;;;;;2.38;0.47;;;;;22.00;101362.00;;;;5005075;28;20654;-77
2022/09/17 10:22:28;;;;;;;4.25;0.30;;;;;21.90;101362.00;;;;5007708;28;20213;-77
2022/09/17 10:24:57;;;;;;;1.13;0.20;;;;;22.00;101367.00;;;;5007122;28;20204;-78
2022/09/17 10:27:26;;;;;;;3.28;0.20;;;;;22.10;101365.00;;;;5007439;28;20208;-77
2022/09/17 10:30:01;;;;;;;1.88;0.30;;;;;22.20;101362.00;;;;5019218;28;20236;-77
2022/09/17 10:32:30;;;;;;;0.82;0.13;;;;;22.30;101348.00;;;;5012038;28;20196;-77
2022/09/17 10:35:00;;;;;;;1.50;0.45;;;;;22.30;101342.00;;;;5008004;28;20264;-77
2022/09/17 10:37:43;;;;;;;0.85;0.30;;;;;22.30;101341.00;;;;5004542;28;20201;-77
2022/09/17 10:40:30;;;;;;;0.70;0.10;;;;;22.40;101346.00;;;;5013113;28;20204;-77
2022/09/17 10:43:17;;;;;;;1.17;0.20;;;;;22.40;101344.00;;;;5009569;28;20663;-77
2022/09/17 10:45:54;;;;;;;4.88;0.25;;;;;22.60;101340.00;;;;5007932;28;20208;-77
2022/09/17 10:48:23;;;;;;;1.80;0.30;;;;;22.60;101328.00;;;;5009762;28;20193;-79
2022/09/17 10:50:52;;;;;;;2.08;0.60;;;;;22.70;101334.00;;;;5007272;28;20205;-78
2022/09/17 10:53:22;;;;;;;3.72;0.35;;;;;22.80;101321.00;;;;5011719;28;20199;-77
2022/09/17 10:55:55;;;;;;;2.30;0.30;;;;;22.90;101331.00;;;;5003722;28;20205;-78
2022/09/17 10:58:35;;;;;;;1.73;0.30;;;;;22.80;101328.00;;;;5009002;28;20229;-79
2022/09/17 11:01:15;;;;;;;1.88;0.68;;;;;22.80;101324.00;;;;5006490;28;20210;-78
2022/09/17 11:04:13;;;;;;;0.82;0.30;;;;;22.80;101319.00;;;;5008677;28;20714;-79
2022/09/17 11:07:23;;;;;;;1.20;0.25;;;;;22.80;101311.00;;;;5007318;28;20201;-78
2022/09/17 11:09:59;;;;;;;3.38;0.60;;;;;22.90;101314.00;;;;4983781;28;20220;-79
2022/09/17 11:12:40;;;;;;;2.55;0.82;;;;;22.90;101314.00;;;;5004859;28;20200;-78
2022/09/17 11:15:20;;;;;;;2.20;0.45;;;;;23.00;101313.00;;;;5017049;28;20702;-78
2022/09/17 11:18:03;;;;;;;2.05;0.30;;;;;23.10;101303.00;;;;5009198;28;20207;-79
2022/09/17 11:20:50;;;;;;;4.13;0.32;;;;;23.10;101300.00;;;;5000942;28;20203;-78
2022/09/17 11:23:35;;;;;;;1.33;0.30;;;;;23.10;101295.00;;;;5002420;28;20216;-79
2022/09/17 11:26:07;;;;;;;3.38;0.40;;;;;23.20;101299.00;;;;5004884;28;20201;-78
2022/09/17 11:28:48;;;;;;;3.40;0.43;;;;;23.30;101294.00;;;;4994166;28;20208;-78
2022/09/17 11:31:28;;;;;;;3.40;0.50;;;;;23.30;101289.00;;;;5007779;28;20201;-78
2022/09/17 11:34:19;;;;;;;4.03;0.63;;;;;23.30;101290.00;;;;5003940;28;20193;-79
2022/09/17 11:36:53;;;;;;;6.40;0.65;;;;;23.30;101310.00;;;;5008460;28;20205;-79
2022/09/17 11:39:26;;;;;;;5.70;0.95;;;;;23.10;101309.00;;;;5007240;28;20197;-78
2022/09/17 11:41:55;;;;;;;2.47;0.77;;;;;23.00;101309.00;;;;5003795;28;20671;-78
2022/09/17 11:44:28;;;;;;;3.13;0.57;;;;;22.90;101305.00;;;;5008146;28;20193;-80
2022/09/17 11:47:00;;;;;;;2.38;0.30;;;;;22.70;101301.00;;;;4998978;28;20548;-78
2022/09/17 11:49:37;;;;;;;3.30;0.52;;;;;22.60;101307.00;;;;5007511;28;20220;-84
2022/09/17 11:52:13;;;;;;;1.60;0.35;;;;;22.60;101309.00;;;;5004418;28;20196;-79
2022/09/17 11:54:47;;;;;;;3.85;0.50;;;;;22.60;101305.00;;;;5004760;28;20201;-81
2022/09/17 11:57:16;;;;;;;2.50;0.60;;;;;22.60;101306.00;;;;5007722;28;20232;-81
2022/09/17 11:59:47;;;;;;;2.13;0.38;;;;;22.60;101307.00;;;;5005793;28;20601;-81
2022/09/17 12:02:21;;;;;;;6.00;0.68;;;;;22.60;101315.00;;;;5003130;28;20206;-81
2022/09/17 12:04:58;;;;;;;3.90;0.40;;;;;22.60;101310.00;;;;5006332;28;20208;-80
2022/09/17 12:07:41;;;;;;;1.67;0.40;;;;;22.50;101316.00;;;;5006962;28;20662;-80
2022/09/17 12:10:25;;;;;;;2.55;0.40;;;;;22.50;101318.00;;;;5004949;28;20221;-80
2022/09/17 12:12:57;;;;;;;3.30;0.60;;;;;22.50;101307.00;;;;5006936;28;20201;-81
2022/09/17 12:15:28;;;;;;;1.58;0.20;;;;;22.60;101320.00;;;;5007649;28;20220;-80
2022/09/17 12:18:03;;;;;;;2.08;0.50;;;;;22.50;101317.00;;;;5002824;28;20671;-79
2022/09/17 12:20:35;;;;;;;2.47;0.47;;;;;22.60;101314.00;;;;5001879;28;20204;-78
2022/09/17 12:23:11;;;;;;;3.33;0.45;;;;;22.60;101313.00;;;;5006627;28;20204;-78
2022/09/17 12:25:49;;;;;;;6.47;0.63;;;;;22.50;101332.00;;;;5007320;28;20196;-78
2022/09/17 12:28:22;;;;;;;5.53;0.50;;;;;22.40;101318.00;;;;5003426;28;20193;-77
2022/09/17 12:30:57;;;;;;;2.45;0.75;;;;;22.40;101311.00;;;;5007189;28;20326;-77